sensor_id;sensor_type;location;lat;lon;timestamp;pressure;altitude;pressure_sealevel;temperature;humidity
76358;BME280;65185;21.060;105.826;2022-12-24T00:00:37;102135.38;;;18.14;67.97
76358;BME280;65185;21.060;105.826;2022-12-24T00:03:03;102147.34;;;18.13;68.45
76358;BME280;65185;21.060;105.826;2022-12-24T00:05:30;102147.88;;;18.15;70.19
76358;BME280;65185;21.060;105.826;2022-12-24T00:07:57;102145.16;;;18.20;72.47
76358;BME280;65185;21.060;105.826;2022-12-24T00:10:24;102152.75;;;18.23;74.09
76358;BME280;65185;21.060;105.826;2022-12-24T00:12:51;102148.97;;;18.24;76.05
76358;BME280;65185;21.060;105.826;2022-12-24T00:15:18;102158.50;;;18.27;77.18
76358;BME280;65185;21.060;105.826;2022-12-24T00:17:45;102158.19;;;18.28;78.11
76358;BME280;65185;21.060;105.826;2022-12-24T00:20:11;102153.31;;;18.31;78.62
76358;BME280;65185;21.060;105.826;2022-12-24T00:22:38;102159.56;;;18.31;78.62
76358;BME280;65185;21.060;105.826;2022-12-24T00:25:05;102162.03;;;18.33;78.10
76358;BME280;65185;21.060;105.826;2022-12-24T00:27:32;102170.72;;;18.35;78.13
76358;BME280;65185;21.060;105.826;2022-12-24T00:29:59;102174.25;;;18.35;77.78
76358;BME280;65185;21.060;105.826;2022-12-24T00:32:26;102167.47;;;18.38;77.47
76358;BME280;65185;21.060;105.826;2022-12-24T00:34:53;102171.53;;;18.40;77.07
76358;BME280;65185;21.060;105.826;2022-12-24T00:37:20;102181.59;;;18.45;77.29
76358;BME280;65185;21.060;105.826;2022-12-24T00:39:47;102172.63;;;18.49;77.49
76358;BME280;65185;21.060;105.826;2022-12-24T00:42:13;102174.78;;;18.52;76.72
76358;BME280;65185;21.060;105.826;2022-12-24T00:44:40;102185.41;;;18.54;73.83
76358;BME280;65185;21.060;105.826;2022-12-24T00:47:07;102184.59;;;18.58;71.46
76358;BME280;65185;21.060;105.826;2022-12-24T00:49:34;102194.66;;;18.63;70.54
76358;BME280;65185;21.060;105.826;2022-12-24T00:52:01;102195.22;;;18.70;70.44
76358;BME280;65185;21.060;105.826;2022-12-24T00:54:28;102206.63;;;18.77;69.54
76358;BME280;65185;21.060;105.826;2022-12-24T00:56:55;102214.78;;;18.82;69.79
76358;BME280;65185;21.060;105.826;2022-12-24T00:59:22;102214.22;;;18.85;69.27
76358;BME280;65185;21.060;105.826;2022-12-24T01:01:48;102224.03;;;18.91;70.72
76358;BME280;65185;21.060;105.826;2022-12-24T01:04:15;102222.38;;;19.00;72.79
76358;BME280;65185;21.060;105.826;2022-12-24T01:07:00;102227.00;;;19.05;72.28
76358;BME280;65185;21.060;105.826;2022-12-24T01:09:27;102228.91;;;19.04;72.52
76358;BME280;65185;21.060;105.826;2022-12-24T01:11:54;102228.59;;;19.06;70.76
76358;BME280;65185;21.060;105.826;2022-12-24T01:14:20;102240.88;;;19.08;68.95
76358;BME280;65185;21.060;105.826;2022-12-24T01:16:47;102249.03;;;19.08;67.89
76358;BME280;65185;21.060;105.826;2022-12-24T01:19:14;102254.75;;;19.12;68.31
76358;BME280;65185;21.060;105.826;2022-12-24T01:21:41;102258.56;;;19.16;69.74
76358;BME280;65185;21.060;105.826;2022-12-24T01:24:13;102255.00;;;19.21;69.82
76358;BME280;65185;21.060;105.826;2022-12-24T01:26:41;102260.72;;;19.24;69.77
76358;BME280;65185;21.060;105.826;2022-12-24T01:29:08;102266.69;;;19.31;70.23
76358;BME280;65185;21.060;105.826;2022-12-24T01:31:35;102266.13;;;19.34;70.86
76358;BME280;65185;21.060;105.826;2022-12-24T01:34:01;102263.69;;;19.38;70.47
76358;BME280;65185;21.060;105.826;2022-12-24T01:36:28;102272.91;;;19.42;68.45
76358;BME280;65185;21.060;105.826;2022-12-24T01:38:55;102274.84;;;19.46;68.77
76358;BME280;65185;21.060;105.826;2022-12-24T01:41:22;102264.75;;;19.52;68.66
76358;BME280;65185;21.060;105.826;2022-12-24T01:44:28;102268.81;;;19.60;68.52
76358;BME280;65185;21.060;105.826;2022-12-24T01:47:19;102269.34;;;19.67;67.61
76358;BME280;65185;21.060;105.826;2022-12-24T01:50:01;102266.59;;;19.72;66.43
76358;BME280;65185;21.060;105.826;2022-12-24T01:52:32;102267.06;;;19.79;65.60
76358;BME280;65185;21.060;105.826;2022-12-24T01:55:04;102259.69;;;19.84;64.09
76358;BME280;65185;21.060;105.826;2022-12-24T01:57:45;102265.09;;;19.95;63.19
76358;BME280;65185;21.060;105.826;2022-12-24T02:00:15;102276.25;;;19.98;63.73
76358;BME280;65185;21.060;105.826;2022-12-24T02:02:45;102272.44;;;19.99;63.40
76358;BME280;65185;21.060;105.826;2022-12-24T02:05:47;102278.41;;;20.01;63.80
76358;BME280;65185;21.060;105.826;2022-12-24T02:08:15;102287.34;;;20.12;64.37
76358;BME280;65185;21.060;105.826;2022-12-24T02:10:43;102278.00;;;20.23;64.31
76358;BME280;65185;21.060;105.826;2022-12-24T02:13:10;102284.69;;;20.46;62.92
76358;BME280;65185;21.060;105.826;2022-12-24T02:18:46;102280.38;;;20.79;60.10
76358;BME280;65185;21.060;105.826;2022-12-24T02:32:31;102291.69;;;21.72;56.85
76358;BME280;65185;21.060;105.826;2022-12-24T02:35:13;102289.75;;;22.15;55.66
76358;BME280;65185;21.060;105.826;2022-12-24T02:40:27;102291.72;;;22.85;53.06
76358;BME280;65185;21.060;105.826;2022-12-24T02:43:00;102296.41;;;22.98;51.87
76358;BME280;65185;21.060;105.826;2022-12-24T02:45:31;102297.97;;;23.17;52.60
76358;BME280;65185;21.060;105.826;2022-12-24T02:47:58;102299.91;;;23.17;50.18
76358;BME280;65185;21.060;105.826;2022-12-24T02:50:26;102295.75;;;23.33;49.11
76358;BME280;65185;21.060;105.826;2022-12-24T02:52:53;102300.31;;;23.38;48.70
76358;BME280;65185;21.060;105.826;2022-12-24T02:55:24;102291.47;;;23.27;48.84
76358;BME280;65185;21.060;105.826;2022-12-24T03:01:09;102290.34;;;23.14;49.12
76358;BME280;65185;21.060;105.826;2022-12-24T03:04:09;102285.69;;;23.42;47.11
76358;BME280;65185;21.060;105.826;2022-12-24T03:12:18;102273.88;;;23.14;47.48
76358;BME280;65185;21.060;105.826;2022-12-24T03:14:47;102279.19;;;23.11;48.02
76358;BME280;65185;21.060;105.826;2022-12-24T03:17:17;102282.50;;;22.94;48.47
76358;BME280;65185;21.060;105.826;2022-12-24T03:19:45;102276.19;;;22.94;46.62
76358;BME280;65185;21.060;105.826;2022-12-24T03:22:12;102266.25;;;22.84;46.57
76358;BME280;65185;21.060;105.826;2022-12-24T03:24:40;102267.66;;;22.82;47.24
76358;BME280;65185;21.060;105.826;2022-12-24T03:29:34;102266.41;;;22.74;48.55
76358;BME280;65185;21.060;105.826;2022-12-24T03:32:02;102261.50;;;22.71;47.62
76358;BME280;65185;21.060;105.826;2022-12-24T03:34:30;102264.47;;;22.74;47.71
76358;BME280;65185;21.060;105.826;2022-12-24T03:36:57;102254.25;;;22.80;47.78
76358;BME280;65185;21.060;105.826;2022-12-24T03:39:24;102250.44;;;22.95;47.06
76358;BME280;65185;21.060;105.826;2022-12-24T03:41:51;102254.13;;;23.17;46.02
76358;BME280;65185;21.060;105.826;2022-12-24T03:44:18;102252.91;;;23.24;46.64
76358;BME280;65185;21.060;105.826;2022-12-24T03:46:45;102258.28;;;23.42;46.16
76358;BME280;65185;21.060;105.826;2022-12-24T03:49:11;102249.22;;;23.42;46.47
76358;BME280;65185;21.060;105.826;2022-12-24T03:51:38;102246.09;;;23.35;46.76
76358;BME280;65185;21.060;105.826;2022-12-24T03:54:05;102233.00;;;23.32;46.15
76358;BME280;65185;21.060;105.826;2022-12-24T03:56:32;102231.97;;;23.41;43.39
76358;BME280;65185;21.060;105.826;2022-12-24T03:58:59;102220.00;;;23.37;43.93
76358;BME280;65185;21.060;105.826;2022-12-24T04:01:26;102220.00;;;23.24;44.45
76358;BME280;65185;21.060;105.826;2022-12-24T04:03:52;102224.06;;;23.12;44.78
76358;BME280;65185;21.060;105.826;2022-12-24T04:06:22;102210.53;;;23.02;44.43
76358;BME280;65185;21.060;105.826;2022-12-24T04:08:49;102210.06;;;23.00;43.83
76358;BME280;65185;21.060;105.826;2022-12-24T04:11:16;102209.81;;;22.97;43.51
76358;BME280;65185;21.060;105.826;2022-12-24T04:13:43;102200.91;;;23.05;41.97
76358;BME280;65185;21.060;105.826;2022-12-24T04:16:13;102198.16;;;23.32;41.36
76358;BME280;65185;21.060;105.826;2022-12-24T04:18:41;102188.81;;;23.19;41.84
76358;BME280;65185;21.060;105.826;2022-12-24T04:21:08;102186.91;;;23.06;42.04
76358;BME280;65185;21.060;105.826;2022-12-24T04:23:37;102183.53;;;22.82;42.68
76358;BME280;65185;21.060;105.826;2022-12-24T04:26:06;102179.16;;;22.81;44.08
76358;BME280;65185;21.060;105.826;2022-12-24T04:28:33;102166.69;;;22.75;44.53
76358;BME280;65185;21.060;105.826;2022-12-24T04:31:03;102150.78;;;22.77;44.87
76358;BME280;65185;21.060;105.826;2022-12-24T04:33:30;102137.50;;;22.84;43.45
76358;BME280;65185;21.060;105.826;2022-12-24T04:35:58;102125.31;;;22.90;42.50
76358;BME280;65185;21.060;105.826;2022-12-24T04:38:25;102120.63;;;22.91;40.83
76358;BME280;65185;21.060;105.826;2022-12-24T04:41:06;102115.78;;;23.01;39.33
76358;BME280;65185;21.060;105.826;2022-12-24T04:43:34;102105.31;;;23.03;40.37
76358;BME280;65185;21.060;105.826;2022-12-24T04:46:09;102099.34;;;23.01;39.88
76358;BME280;65185;21.060;105.826;2022-12-24T04:48:36;102096.47;;;22.93;40.16
76358;BME280;65185;21.060;105.826;2022-12-24T04:51:04;102091.41;;;22.86;40.01
76358;BME280;65185;21.060;105.826;2022-12-24T04:53:32;102084.81;;;22.87;40.01
76358;BME280;65185;21.060;105.826;2022-12-24T04:55:59;102079.13;;;22.97;40.59
76358;BME280;65185;21.060;105.826;2022-12-24T04:58:26;102069.38;;;23.05;39.86
76358;BME280;65185;21.060;105.826;2022-12-24T05:00:53;102054.94;;;23.13;40.03
76358;BME280;65185;21.060;105.826;2022-12-24T05:03:20;102053.00;;;23.13;38.78
76358;BME280;65185;21.060;105.826;2022-12-24T05:05:47;102050.66;;;23.20;39.59
76358;BME280;65185;21.060;105.826;2022-12-24T05:08:14;102042.56;;;23.15;39.72
76358;BME280;65185;21.060;105.826;2022-12-24T05:10:41;102036.44;;;23.18;41.34
76358;BME280;65185;21.060;105.826;2022-12-24T05:13:08;102024.25;;;23.25;40.18
76358;BME280;65185;21.060;105.826;2022-12-24T05:15:35;102019.66;;;23.34;41.39
76358;BME280;65185;21.060;105.826;2022-12-24T05:18:02;102014.66;;;23.36;41.91
76358;BME280;65185;21.060;105.826;2022-12-24T05:20:28;102011.75;;;23.32;41.85
76358;BME280;65185;21.060;105.826;2022-12-24T05:22:55;102012.03;;;23.31;42.13
76358;BME280;65185;21.060;105.826;2022-12-24T05:25:40;102011.06;;;23.27;42.44
76358;BME280;65185;21.060;105.826;2022-12-24T05:28:25;102006.94;;;23.15;43.55
76358;BME280;65185;21.060;105.826;2022-12-24T05:30:51;101999.00;;;23.14;43.42
76358;BME280;65185;21.060;105.826;2022-12-24T05:33:18;101983.69;;;23.13;42.34
76358;BME280;65185;21.060;105.826;2022-12-24T05:35:45;101982.44;;;23.19;40.50
76358;BME280;65185;21.060;105.826;2022-12-24T05:38:12;101979.78;;;23.28;39.82
76358;BME280;65185;21.060;105.826;2022-12-24T05:40:39;101963.75;;;23.21;39.85
76358;BME280;65185;21.060;105.826;2022-12-24T05:43:05;101960.22;;;23.20;38.67
76358;BME280;65185;21.060;105.826;2022-12-24T05:45:32;101946.38;;;23.26;37.87
76358;BME280;65185;21.060;105.826;2022-12-24T05:47:59;101943.22;;;23.32;37.86
76358;BME280;65185;21.060;105.826;2022-12-24T05:50:26;101937.09;;;23.35;38.78
76358;BME280;65185;21.060;105.826;2022-12-24T05:52:53;101936.66;;;23.42;38.38
76358;BME280;65185;21.060;105.826;2022-12-24T05:55:19;101926.72;;;23.46;38.71
76358;BME280;65185;21.060;105.826;2022-12-24T05:57:46;101927.06;;;23.53;39.02
76358;BME280;65185;21.060;105.826;2022-12-24T06:00:13;101925.78;;;23.50;39.60
76358;BME280;65185;21.060;105.826;2022-12-24T06:02:40;101923.88;;;23.37;39.52
76358;BME280;65185;21.060;105.826;2022-12-24T06:05:07;101914.81;;;23.28;38.81
76358;BME280;65185;21.060;105.826;2022-12-24T06:07:34;101909.31;;;23.28;38.95
76358;BME280;65185;21.060;105.826;2022-12-24T06:10:01;101905.66;;;23.33;37.31
76358;BME280;65185;21.060;105.826;2022-12-24T06:12:28;101905.81;;;23.36;38.43
76358;BME280;65185;21.060;105.826;2022-12-24T06:14:55;101901.16;;;23.37;39.17
76358;BME280;65185;21.060;105.826;2022-12-24T06:17:22;101890.56;;;23.44;39.73
76358;BME280;65185;21.060;105.826;2022-12-24T06:19:49;101886.69;;;23.45;38.80
76358;BME280;65185;21.060;105.826;2022-12-24T06:22:16;101883.56;;;23.38;38.21
76358;BME280;65185;21.060;105.826;2022-12-24T06:24:43;101881.09;;;23.28;38.10
76358;BME280;65185;21.060;105.826;2022-12-24T06:27:15;101880.13;;;23.24;38.93
76358;BME280;65185;21.060;105.826;2022-12-24T06:29:42;101874.31;;;23.25;39.50
76358;BME280;65185;21.060;105.826;2022-12-24T06:32:09;101868.66;;;23.21;38.59
76358;BME280;65185;21.060;105.826;2022-12-24T06:34:35;101868.78;;;23.16;38.26
76358;BME280;65185;21.060;105.826;2022-12-24T06:37:02;101867.41;;;23.28;39.07
76358;BME280;65185;21.060;105.826;2022-12-24T06:39:29;101859.31;;;23.23;38.81
76358;BME280;65185;21.060;105.826;2022-12-24T06:41:55;101862.06;;;23.23;38.69
76358;BME280;65185;21.060;105.826;2022-12-24T06:44:22;101852.34;;;23.16;38.77
76358;BME280;65185;21.060;105.826;2022-12-24T06:46:49;101854.13;;;23.21;39.17
76358;BME280;65185;21.060;105.826;2022-12-24T06:49:16;101849.47;;;23.21;37.99
76358;BME280;65185;21.060;105.826;2022-12-24T06:51:42;101851.22;;;23.17;37.74
76358;BME280;65185;21.060;105.826;2022-12-24T06:54:09;101843.59;;;23.14;37.36
76358;BME280;65185;21.060;105.826;2022-12-24T06:56:36;101839.75;;;23.15;37.44
76358;BME280;65185;21.060;105.826;2022-12-24T06:59:02;101835.53;;;23.09;37.66
76358;BME280;65185;21.060;105.826;2022-12-24T07:01:29;101837.75;;;23.07;37.76
76358;BME280;65185;21.060;105.826;2022-12-24T07:03:56;101838.00;;;22.97;37.59
76358;BME280;65185;21.060;105.826;2022-12-24T07:06:27;101831.41;;;22.98;38.05
76358;BME280;65185;21.060;105.826;2022-12-24T07:08:55;101828.06;;;23.01;39.61
76358;BME280;65185;21.060;105.826;2022-12-24T07:11:23;101826.44;;;23.00;38.23
76358;BME280;65185;21.060;105.826;2022-12-24T07:13:50;101822.81;;;22.91;38.96
76358;BME280;65185;21.060;105.826;2022-12-24T07:16:17;101818.50;;;22.90;40.00
76358;BME280;65185;21.060;105.826;2022-12-24T07:18:44;101815.25;;;22.88;39.23
76358;BME280;65185;21.060;105.826;2022-12-24T07:21:11;101811.69;;;22.88;38.27
76358;BME280;65185;21.060;105.826;2022-12-24T07:23:37;101808.28;;;22.82;38.53
76358;BME280;65185;21.060;105.826;2022-12-24T07:26:05;101812.13;;;22.81;38.85
76358;BME280;65185;21.060;105.826;2022-12-24T07:28:32;101807.75;;;22.80;39.54
76358;BME280;65185;21.060;105.826;2022-12-24T07:30:59;101798.13;;;22.83;39.73
76358;BME280;65185;21.060;105.826;2022-12-24T07:33:26;101796.88;;;22.89;39.96
76358;BME280;65185;21.060;105.826;2022-12-24T07:36:02;101784.03;;;22.98;40.32
76358;BME280;65185;21.060;105.826;2022-12-24T07:38:30;101797.31;;;23.13;39.00
76358;BME280;65185;21.060;105.826;2022-12-24T07:40:57;101796.53;;;23.12;38.44
76358;BME280;65185;21.060;105.826;2022-12-24T07:43:24;101789.78;;;23.18;38.55
76358;BME280;65185;21.060;105.826;2022-12-24T07:45:54;101783.81;;;23.16;38.67
76358;BME280;65185;21.060;105.826;2022-12-24T07:48:22;101784.94;;;23.15;39.19
76358;BME280;65185;21.060;105.826;2022-12-24T07:50:49;101782.69;;;23.17;40.53
76358;BME280;65185;21.060;105.826;2022-12-24T07:53:16;101784.81;;;23.20;38.41
76358;BME280;65185;21.060;105.826;2022-12-24T07:55:43;101777.84;;;23.14;37.98
76358;BME280;65185;21.060;105.826;2022-12-24T07:58:10;101779.91;;;23.09;39.70
76358;BME280;65185;21.060;105.826;2022-12-24T08:00:37;101774.94;;;23.11;38.41
76358;BME280;65185;21.060;105.826;2022-12-24T08:03:04;101766.50;;;23.07;37.82
76358;BME280;65185;21.060;105.826;2022-12-24T08:05:35;101771.38;;;23.10;39.43
76358;BME280;65185;21.060;105.826;2022-12-24T08:08:02;101767.31;;;23.08;38.41
76358;BME280;65185;21.060;105.826;2022-12-24T08:10:28;101772.00;;;23.07;39.21
76358;BME280;65185;21.060;105.826;2022-12-24T08:12:55;101766.03;;;23.05;37.44
76358;BME280;65185;21.060;105.826;2022-12-24T08:15:22;101759.06;;;22.99;37.34
76358;BME280;65185;21.060;105.826;2022-12-24T08:17:48;101763.91;;;23.02;37.97
76358;BME280;65185;21.060;105.826;2022-12-24T08:20:15;101761.31;;;22.97;39.43
76358;BME280;65185;21.060;105.826;2022-12-24T08:22:42;101757.06;;;22.91;40.46
76358;BME280;65185;21.060;105.826;2022-12-24T08:25:09;101759.94;;;22.86;39.53
76358;BME280;65185;21.060;105.826;2022-12-24T08:27:36;101758.31;;;22.85;38.91
76358;BME280;65185;21.060;105.826;2022-12-24T08:32:29;101751.25;;;22.84;38.55
76358;BME280;65185;21.060;105.826;2022-12-24T08:34:56;101752.97;;;22.80;37.46
76358;BME280;65185;21.060;105.826;2022-12-24T08:37:23;101749.75;;;22.78;38.94
76358;BME280;65185;21.060;105.826;2022-12-24T08:39:49;101749.56;;;22.74;39.50
76358;BME280;65185;21.060;105.826;2022-12-24T08:42:16;101749.34;;;22.71;38.50
76358;BME280;65185;21.060;105.826;2022-12-24T08:44:42;101755.47;;;22.68;37.49
76358;BME280;65185;21.060;105.826;2022-12-24T08:47:09;101754.47;;;22.64;38.23
76358;BME280;65185;21.060;105.826;2022-12-24T08:49:36;101757.31;;;22.59;39.07
76358;BME280;65185;21.060;105.826;2022-12-24T08:52:02;101754.22;;;22.52;39.68
76358;BME280;65185;21.060;105.826;2022-12-24T08:54:29;101750.78;;;22.46;40.00
76358;BME280;65185;21.060;105.826;2022-12-24T08:56:56;101759.44;;;22.39;39.82
76358;BME280;65185;21.060;105.826;2022-12-24T08:59:22;101752.16;;;22.35;39.78
76358;BME280;65185;21.060;105.826;2022-12-24T09:01:49;101757.44;;;22.31;40.03
76358;BME280;65185;21.060;105.826;2022-12-24T09:04:16;101757.25;;;22.28;39.40
76358;BME280;65185;21.060;105.826;2022-12-24T09:06:42;101758.19;;;22.23;39.50
76358;BME280;65185;21.060;105.826;2022-12-24T09:09:09;101753.63;;;22.19;39.07
76358;BME280;65185;21.060;105.826;2022-12-24T09:11:36;101756.19;;;22.15;39.62
76358;BME280;65185;21.060;105.826;2022-12-24T09:14:02;101758.72;;;22.12;40.03
76358;BME280;65185;21.060;105.826;2022-12-24T09:16:29;101751.44;;;22.07;40.04
76358;BME280;65185;21.060;105.826;2022-12-24T09:18:56;101753.97;;;22.04;39.94
76358;BME280;65185;21.060;105.826;2022-12-24T09:21:23;101747.50;;;22.00;40.41
76358;BME280;65185;21.060;105.826;2022-12-24T09:23:50;101752.78;;;21.96;40.96
76358;BME280;65185;21.060;105.826;2022-12-24T09:26:23;101759.13;;;21.91;41.56
76358;BME280;65185;21.060;105.826;2022-12-24T09:28:50;101754.59;;;21.87;41.69
76358;BME280;65185;21.060;105.826;2022-12-24T09:31:18;101752.47;;;21.84;41.45
76358;BME280;65185;21.060;105.826;2022-12-24T09:33:46;101748.72;;;21.80;42.09
76358;BME280;65185;21.060;105.826;2022-12-24T09:36:13;101760.28;;;21.77;42.86
76358;BME280;65185;21.060;105.826;2022-12-24T09:38:40;101763.13;;;21.72;44.73
76358;BME280;65185;21.060;105.826;2022-12-24T09:43:53;101760.72;;;21.56;46.84
76358;BME280;65185;21.060;105.826;2022-12-24T09:46:36;101767.41;;;21.50;48.41
76358;BME280;65185;21.060;105.826;2022-12-24T09:49:10;101761.53;;;21.43;48.92
76358;BME280;65185;21.060;105.826;2022-12-24T09:51:46;101754.53;;;21.37;49.70
76358;BME280;65185;21.060;105.826;2022-12-24T09:54:22;101761.41;;;21.35;50.59
76358;BME280;65185;21.060;105.826;2022-12-24T09:56:51;101772.75;;;21.28;49.61
76358;BME280;65185;21.060;105.826;2022-12-24T09:59:27;101761.31;;;21.26;49.99
76358;BME280;65185;21.060;105.826;2022-12-24T10:01:59;101763.84;;;21.23;49.17
76358;BME280;65185;21.060;105.826;2022-12-24T10:04:28;101769.41;;;21.18;49.84
76358;BME280;65185;21.060;105.826;2022-12-24T10:15:36;101768.06;;;21.15;46.65
76358;BME280;65185;21.060;105.826;2022-12-24T10:21:15;101777.13;;;21.10;44.99
76358;BME280;65185;21.060;105.826;2022-12-24T10:24:06;101772.59;;;21.06;44.62
76358;BME280;65185;21.060;105.826;2022-12-24T10:29:19;101776.69;;;21.22;45.08
76358;BME280;65185;21.060;105.826;2022-12-24T10:34:45;101773.53;;;21.15;44.15
76358;BME280;65185;21.060;105.826;2022-12-24T10:37:19;101775.44;;;21.14;44.23
76358;BME280;65185;21.060;105.826;2022-12-24T10:39:47;101781.72;;;21.15;43.77
76358;BME280;65185;21.060;105.826;2022-12-24T10:42:14;101781.09;;;21.18;44.10
76358;BME280;65185;21.060;105.826;2022-12-24T10:44:46;101787.22;;;21.29;44.09
76358;BME280;65185;21.060;105.826;2022-12-24T10:47:17;101784.88;;;21.22;44.06
76358;BME280;65185;21.060;105.826;2022-12-24T10:49:59;101785.34;;;21.10;44.38
76358;BME280;65185;21.060;105.826;2022-12-24T10:52:32;101783.09;;;20.99;44.81
76358;BME280;65185;21.060;105.826;2022-12-24T10:55:07;101793.56;;;20.92;46.02
76358;BME280;65185;21.060;105.826;2022-12-24T10:57:39;101791.22;;;20.85;47.11
76358;BME280;65185;21.060;105.826;2022-12-24T11:00:18;101793.75;;;20.82;47.71
76358;BME280;65185;21.060;105.826;2022-12-24T11:02:46;101794.03;;;20.80;47.95
76358;BME280;65185;21.060;105.826;2022-12-24T11:05:32;101793.38;;;20.88;48.41
76358;BME280;65185;21.060;105.826;2022-12-24T11:08:28;101800.53;;;20.84;48.65
76358;BME280;65185;21.060;105.826;2022-12-24T11:10:56;101795.38;;;20.83;48.54
76358;BME280;65185;21.060;105.826;2022-12-24T11:13:38;101800.41;;;20.75;48.78
76358;BME280;65185;21.060;105.826;2022-12-24T11:18:50;101801.97;;;20.63;48.89
76358;BME280;65185;21.060;105.826;2022-12-24T11:21:26;101810.22;;;20.58;49.03
76358;BME280;65185;21.060;105.826;2022-12-24T11:23:56;101811.13;;;20.53;48.96
76358;BME280;65185;21.060;105.826;2022-12-24T11:26:27;101810.59;;;20.51;49.40
76358;BME280;65185;21.060;105.826;2022-12-24T11:29:20;101818.56;;;20.48;50.22
76358;BME280;65185;21.060;105.826;2022-12-24T11:31:48;101818.03;;;20.46;50.98
76358;BME280;65185;21.060;105.826;2022-12-24T11:36:43;101821.66;;;20.41;53.27
76358;BME280;65185;21.060;105.826;2022-12-24T11:39:21;101827.13;;;20.41;54.18
76358;BME280;65185;21.060;105.826;2022-12-24T11:41:49;101823.28;;;20.42;55.40
76358;BME280;65185;21.060;105.826;2022-12-24T11:44:26;101828.00;;;20.37;56.01
76358;BME280;65185;21.060;105.826;2022-12-24T11:46:54;101830.53;;;20.33;57.13
76358;BME280;65185;21.060;105.826;2022-12-24T11:49:24;101824.00;;;20.29;58.61
76358;BME280;65185;21.060;105.826;2022-12-24T11:52:20;101824.88;;;20.24;59.96
76358;BME280;65185;21.060;105.826;2022-12-24T12:00:17;101849.34;;;20.29;58.28
76358;BME280;65185;21.060;105.826;2022-12-24T12:02:47;101853.19;;;20.33;58.76
76358;BME280;65185;21.060;105.826;2022-12-24T12:05:32;101861.03;;;20.35;60.67
76358;BME280;65185;21.060;105.826;2022-12-24T12:08:16;101870.84;;;20.36;62.02
76358;BME280;65185;21.060;105.826;2022-12-24T12:10:44;101879.03;;;20.36;62.11
76358;BME280;65185;21.060;105.826;2022-12-24T12:13:18;101876.25;;;20.41;59.71
76358;BME280;65185;21.060;105.826;2022-12-24T12:18:20;101882.06;;;20.34;62.81
76358;BME280;65185;21.060;105.826;2022-12-24T12:21:02;101875.00;;;20.33;63.82
76358;BME280;65185;21.060;105.826;2022-12-24T12:23:36;101881.41;;;20.19;63.95
76358;BME280;65185;21.060;105.826;2022-12-24T12:26:09;101885.84;;;20.15;65.45
76358;BME280;65185;21.060;105.826;2022-12-24T12:28:46;101883.94;;;20.15;66.59
76358;BME280;65185;21.060;105.826;2022-12-24T12:36:38;101891.00;;;20.16;68.26
76358;BME280;65185;21.060;105.826;2022-12-24T12:39:09;101901.16;;;20.11;67.93
76358;BME280;65185;21.060;105.826;2022-12-24T12:58:46;101917.25;;;19.88;73.74
76358;BME280;65185;21.060;105.826;2022-12-24T13:01:55;101920.25;;;19.87;73.71
76358;BME280;65185;21.060;105.826;2022-12-24T13:05:08;101921.28;;;19.91;71.31
76358;BME280;65185;21.060;105.826;2022-12-24T13:21:21;101925.00;;;19.76;70.23
76358;BME280;65185;21.060;105.826;2022-12-24T13:23:49;101930.44;;;19.76;72.07
76358;BME280;65185;21.060;105.826;2022-12-24T13:26:16;101928.19;;;19.83;69.27
76358;BME280;65185;21.060;105.826;2022-12-24T13:28:44;101930.09;;;19.83;69.10
76358;BME280;65185;21.060;105.826;2022-12-24T13:36:10;101931.53;;;19.75;73.18
76358;BME280;65185;21.060;105.826;2022-12-24T13:38:46;101936.00;;;19.66;74.68
76358;BME280;65185;21.060;105.826;2022-12-24T13:49:41;101939.53;;;19.67;68.08
76358;BME280;65185;21.060;105.826;2022-12-24T14:02:28;101949.22;;;19.49;74.94
76358;BME280;65185;21.060;105.826;2022-12-24T14:05:01;101950.31;;;19.48;73.13
76358;BME280;65185;21.060;105.826;2022-12-24T14:07:29;101945.97;;;19.47;75.09
76358;BME280;65185;21.060;105.826;2022-12-24T14:09:57;101945.97;;;19.47;78.92
76358;BME280;65185;21.060;105.826;2022-12-24T14:12:47;101948.41;;;19.48;77.73
76358;BME280;65185;21.060;105.826;2022-12-24T14:18:17;101952.78;;;19.49;79.93
76358;BME280;65185;21.060;105.826;2022-12-24T14:20:56;101963.09;;;19.52;83.15
76358;BME280;65185;21.060;105.826;2022-12-24T14:26:15;101958.47;;;19.53;78.59
76358;BME280;65185;21.060;105.826;2022-12-24T14:29:05;101964.50;;;19.50;78.47
76358;BME280;65185;21.060;105.826;2022-12-24T14:31:31;101959.56;;;19.52;76.07
76358;BME280;65185;21.060;105.826;2022-12-24T14:34:11;101962.84;;;19.49;79.30
76358;BME280;65185;21.060;105.826;2022-12-24T14:36:39;101970.91;;;19.64;76.68
76358;BME280;65185;21.060;105.826;2022-12-24T14:39:10;101978.53;;;19.62;75.57
76358;BME280;65185;21.060;105.826;2022-12-24T14:44:35;101971.84;;;19.44;76.82
76358;BME280;65185;21.060;105.826;2022-12-24T14:47:33;101972.69;;;19.45;79.12
76358;BME280;65185;21.060;105.826;2022-12-24T14:55:46;101975.81;;;19.23;81.28
76358;BME280;65185;21.060;105.826;2022-12-24T14:58:35;101968.41;;;19.29;79.93
76358;BME280;65185;21.060;105.826;2022-12-24T15:01:23;101973.63;;;19.25;84.95
76358;BME280;65185;21.060;105.826;2022-12-24T15:06:42;101969.00;;;19.26;85.85